createdAt,value
2019-04-11T00:02:10.061Z,20.67
2019-04-11T00:04:42.037Z,20.33
2019-04-11T00:07:14.432Z,20.27
2019-04-11T00:09:45.421Z,20.40
2019-04-11T00:12:18.722Z,19.83
2019-04-11T00:14:49.217Z,19.60
2019-04-11T00:17:21.630Z,20.93
2019-04-11T00:19:52.286Z,19.07
2019-04-11T00:22:25.972Z,20.40
2019-04-11T00:24:58.981Z,21.00
2019-04-11T00:27:30.840Z,20.43
2019-04-11T00:30:01.992Z,21.33
2019-04-11T00:32:33.822Z,19.17
2019-04-11T00:35:05.619Z,20.53
2019-04-11T00:37:37.034Z,21.00
2019-04-11T00:40:08.979Z,19.33
2019-04-11T00:42:40.933Z,20.90
2019-04-11T00:45:13.648Z,20.57
2019-04-11T00:47:44.990Z,19.53
2019-04-11T00:50:15.487Z,21.30
2019-04-11T00:52:47.595Z,20.00
2019-04-11T00:55:19.631Z,20.50
2019-04-11T00:57:50.300Z,19.70
2019-04-11T01:00:22.824Z,21.93
2019-04-11T01:02:53.751Z,20.40
2019-04-11T01:05:25.615Z,19.70
2019-04-11T01:07:57.664Z,20.90
2019-04-11T01:10:28.375Z,20.50
2019-04-11T01:13:00.790Z,20.40
2019-04-11T01:15:31.405Z,20.10
2019-04-11T01:18:04.194Z,20.83
2019-04-11T01:20:41.918Z,20.80
2019-04-11T01:23:18.594Z,19.77
2019-04-11T01:25:59.004Z,22.60
2019-04-11T01:28:36.762Z,20.53
2019-04-11T01:31:15.633Z,22.27
2019-04-11T01:33:58.036Z,22.10
2019-04-11T01:36:35.257Z,20.77
2019-04-11T01:39:28.028Z,20.97
2019-04-11T01:42:16.641Z,21.33
2019-04-11T01:44:49.782Z,20.73
2019-04-11T01:48:03.702Z,21.50
2019-04-11T01:50:45.064Z,21.00
2019-04-11T01:53:37.323Z,22.00
2019-04-11T01:56:11.156Z,20.87
2019-04-11T01:58:44.715Z,20.03
2019-04-11T02:01:49.367Z,22.30
2019-04-11T02:04:28.328Z,21.17
2019-04-11T02:07:10.145Z,21.90
2019-04-11T02:09:50.518Z,21.83
2019-04-11T02:12:30.941Z,22.10
2019-04-11T02:15:06.022Z,21.20
2019-04-11T02:17:43.465Z,20.20
2019-04-11T02:20:17.161Z,20.40
2019-04-11T02:23:15.067Z,22.40
2019-04-11T02:26:10.067Z,20.50
2019-04-11T02:28:44.551Z,20.80
2019-04-11T02:31:17.149Z,21.70
2019-04-11T02:33:51.171Z,21.70
2019-04-11T02:36:22.420Z,21.33
2019-04-11T02:38:56.576Z,21.23
2019-04-11T02:41:25.515Z,22.07
2019-04-11T02:43:57.970Z,22.00
2019-04-11T02:46:41.221Z,20.50
2019-04-11T02:49:03.251Z,21.57
2019-04-11T02:51:35.065Z,19.90
2019-04-11T02:54:11.505Z,21.43
2019-04-11T02:56:45.547Z,21.60
2019-04-11T02:59:17.588Z,21.57
2019-04-11T03:01:50.937Z,20.67
2019-04-11T03:04:24.494Z,20.57
2019-04-11T03:06:57.421Z,21.23
2019-04-11T03:09:29.127Z,22.47
2019-04-11T03:11:59.671Z,20.80
2019-04-11T03:14:46.123Z,21.47
2019-04-11T03:17:14.058Z,22.57
2019-04-11T03:19:49.226Z,21.50
2019-04-11T03:22:09.968Z,21.60
2019-04-11T03:24:42.754Z,21.13
2019-04-11T03:27:15.535Z,22.97
2019-04-11T03:29:47.152Z,20.47
2019-04-11T03:33:07.282Z,19.63
2019-04-11T03:36:00.735Z,20.10
2019-04-11T03:37:54.706Z,20.30
2019-04-11T03:40:23.844Z,20.97
2019-04-11T03:42:46.523Z,21.63
2019-04-11T03:45:32.798Z,21.57
2019-04-11T03:48:03.781Z,20.80
2019-04-11T03:50:21.976Z,20.10
2019-04-11T03:52:51.864Z,21.77
2019-04-11T03:55:28.389Z,21.53
2019-04-11T03:58:01.309Z,20.03
2019-04-11T04:00:35.977Z,20.37
2019-04-11T04:03:09.112Z,20.13
2019-04-11T04:05:42.309Z,19.20
2019-04-11T04:08:15.562Z,20.47
2019-04-11T04:11:06.250Z,19.73
2019-04-11T04:13:39.920Z,20.20
2019-04-11T04:16:36.560Z,20.40
2019-04-11T04:19:25.143Z,20.07
2019-04-11T04:22:11.124Z,20.17
2019-04-11T04:24:43.221Z,20.33
2019-04-11T04:27:15.488Z,21.17
2019-04-11T04:29:52.855Z,19.23
2019-04-11T04:32:23.694Z,19.50
2019-04-11T04:34:56.036Z,20.10
2019-04-11T04:37:29.601Z,18.77
2019-04-11T04:40:21.654Z,20.73
2019-04-11T04:42:40.352Z,19.20
2019-04-11T04:45:11.806Z,20.77
2019-04-11T04:47:51.420Z,19.07
2019-04-11T04:50:18.058Z,19.63
2019-04-11T04:52:51.585Z,20.60
2019-04-11T04:55:23.564Z,20.20
2019-04-11T04:57:57.684Z,19.27
2019-04-11T05:00:34.837Z,20.00
2019-04-11T05:03:07.493Z,20.43
2019-04-11T05:05:38.509Z,20.93
2019-04-11T05:08:10.654Z,19.40
2019-04-11T05:10:43.140Z,22.70
2019-04-11T05:13:17.211Z,20.57
2019-04-11T05:15:48.989Z,18.47
2019-04-11T05:18:20.754Z,21.93
2019-04-11T05:20:54.776Z,20.70
2019-04-11T05:23:25.722Z,20.13
2019-04-11T05:25:57.167Z,20.10
2019-04-11T05:28:29.826Z,21.40
2019-04-11T05:31:00.688Z,20.17
2019-04-11T05:33:31.916Z,20.63
2019-04-11T05:36:04.020Z,20.77
2019-04-11T05:38:35.994Z,20.27
2019-04-11T05:41:12.128Z,21.10
2019-04-11T05:43:41.819Z,19.80
2019-04-11T05:46:26.051Z,20.60
2019-04-11T05:49:16.921Z,18.93
2019-04-11T05:51:58.880Z,18.40
2019-04-11T05:54:36.484Z,20.17
2019-04-11T05:57:09.110Z,18.93
2019-04-11T05:59:41.212Z,18.87
2019-04-11T06:02:21.394Z,19.60
2019-04-11T06:05:02.782Z,19.60
2019-04-11T06:07:42.091Z,19.53
2019-04-11T06:10:18.389Z,20.10
2019-04-11T06:13:13.308Z,19.83
2019-04-11T06:15:47.316Z,18.97
2019-04-11T06:18:33.114Z,19.17
2019-04-11T06:21:09.497Z,20.63
2019-04-11T06:24:09.923Z,20.50
2019-04-11T06:26:58.874Z,19.30
2019-04-11T06:29:41.243Z,18.93
2019-04-11T06:32:47.883Z,19.63
2019-04-11T06:35:28.768Z,18.47
2019-04-11T06:38:18.554Z,18.93
2019-04-11T06:41:04.094Z,19.53
2019-04-11T06:43:47.958Z,19.03
2019-04-11T06:46:55.776Z,19.63
2019-04-11T06:49:36.319Z,19.43
2019-04-11T06:52:10.612Z,18.90
2019-04-11T06:54:58.598Z,21.30
2019-04-11T06:57:32.026Z,19.07
2019-04-11T07:00:03.445Z,19.87
2019-04-11T07:02:38.931Z,20.50
2019-04-11T07:05:11.838Z,17.97
2019-04-11T07:07:47.327Z,19.60
2019-04-11T07:10:20.857Z,20.37
2019-04-11T07:13:03.487Z,17.67
2019-04-11T07:15:50.612Z,19.40
2019-04-11T07:18:40.261Z,19.33
2019-04-11T07:21:12.197Z,20.20
2019-04-11T07:24:03.241Z,20.40
2019-04-11T07:26:58.834Z,20.97
2019-04-11T07:30:01.496Z,20.27
2019-04-11T07:32:32.522Z,19.40
2019-04-11T07:35:27.644Z,20.17
2019-04-11T07:38:01.092Z,19.50
2019-04-11T07:41:00.661Z,20.27
2019-04-11T07:43:35.443Z,20.50
2019-04-11T07:46:25.558Z,20.00
2019-04-11T07:49:10.039Z,19.50
2019-04-11T07:51:50.689Z,19.80
2019-04-11T07:54:25.945Z,20.17
2019-04-11T07:57:32.383Z,20.70
2019-04-11T08:00:36.730Z,20.97
2019-04-11T08:03:21.465Z,21.07
2019-04-11T08:06:11.713Z,20.73
2019-04-11T08:09:05.037Z,19.30
2019-04-11T08:11:45.387Z,21.10
2019-04-11T08:14:44.596Z,19.77
2019-04-11T08:17:27.903Z,20.63
2019-04-11T08:20:08.057Z,19.87
2019-04-11T08:22:47.762Z,21.40
2019-04-11T08:25:57.754Z,21.53
2019-04-11T08:28:28.952Z,20.70
2019-04-11T08:31:11.034Z,22.10
2019-04-11T08:33:43.888Z,20.80
2019-04-11T08:36:33.775Z,22.07
2019-04-11T08:39:11.660Z,21.97
2019-04-11T08:42:03.129Z,22.97
2019-04-11T08:44:39.661Z,20.50
2019-04-11T08:47:13.047Z,22.30
2019-04-11T08:49:48.171Z,22.67
2019-04-11T08:52:38.510Z,21.60
2019-04-11T08:55:17.249Z,21.20
2019-04-11T08:57:51.892Z,22.33
2019-04-11T09:00:42.305Z,21.80
2019-04-11T09:03:29.468Z,22.13
2019-04-11T09:06:06.187Z,23.63
2019-04-11T09:09:02.813Z,21.50
2019-04-11T09:11:47.041Z,22.33
2019-04-11T09:14:41.071Z,24.17
2019-04-11T09:17:44.465Z,21.60
2019-04-11T09:20:38.333Z,21.17
2019-04-11T09:23:11.441Z,24.43
2019-04-11T09:26:20.200Z,21.77
2019-04-11T09:28:54.593Z,22.53
2019-04-11T09:31:51.989Z,23.63
2019-04-11T09:34:40.089Z,23.40
2019-04-11T09:37:30.965Z,23.27
2019-04-11T09:40:26.065Z,21.03
2019-04-11T09:43:15.996Z,22.63
2019-04-11T09:46:24.105Z,22.50
2019-04-11T09:49:12.368Z,22.13
2019-04-11T09:51:56.083Z,22.60
2019-04-11T09:54:42.068Z,22.00
2019-04-11T09:57:34.526Z,20.67
2019-04-11T10:00:27.381Z,21.23
2019-04-11T10:03:08.752Z,23.20
2019-04-11T10:05:59.767Z,20.33
2019-04-11T10:08:51.217Z,19.87
2019-04-11T10:11:55.006Z,20.33
2019-04-11T10:14:27.331Z,19.47
2019-04-11T10:17:26.882Z,19.40
2019-04-11T10:20:04.637Z,20.83
2019-04-11T10:23:12.486Z,19.40
2019-04-11T10:25:52.255Z,20.73
2019-04-11T10:28:49.597Z,20.70
2019-04-11T10:31:22.485Z,20.00
2019-04-11T10:34:27.852Z,20.83
2019-04-11T10:37:04.450Z,19.53
2019-04-11T10:39:54.607Z,20.03
2019-04-11T10:42:26.843Z,20.50
2019-04-11T10:45:16.999Z,19.10
2019-04-11T10:47:49.304Z,19.40
2019-04-11T10:50:53.591Z,19.63
2019-04-11T10:53:26.878Z,20.47
2019-04-11T10:56:18.117Z,19.70
2019-04-11T10:58:51.283Z,16.97
2019-04-11T11:01:40.431Z,20.70
2019-04-11T11:04:15.882Z,17.37
2019-04-11T11:06:51.794Z,19.13
2019-04-11T11:09:36.800Z,19.90
2019-04-11T11:12:27.413Z,19.00
2019-04-11T11:15:09.637Z,18.90
2019-04-11T11:18:31.040Z,19.40
2019-04-11T11:20:51.512Z,17.80
2019-04-11T11:23:37.342Z,17.80
2019-04-11T11:26:10.827Z,17.33
2019-04-11T11:28:52.580Z,18.43
2019-04-11T11:31:48.084Z,17.80
2019-04-11T11:34:26.305Z,18.60
2019-04-11T11:37:25.885Z,19.17
2019-04-11T11:40:18.031Z,18.20
2019-04-11T11:43:08.713Z,18.60
2019-04-11T11:45:51.610Z,18.17
2019-04-11T11:48:54.382Z,17.77
2019-04-11T11:51:47.784Z,18.80
2019-04-11T11:54:21.940Z,18.30
2019-04-11T11:56:54.404Z,17.93
2019-04-11T11:59:44.828Z,18.07
2019-04-11T12:02:26.378Z,17.60
2019-04-11T12:05:26.098Z,17.00
2019-04-11T12:08:16.604Z,18.47
2019-04-11T12:11:01.848Z,18.80
2019-04-11T12:14:00.012Z,16.73
2019-04-11T12:17:03.306Z,17.60
2019-04-11T12:19:47.669Z,16.70
2019-04-11T12:22:13.257Z,16.70
2019-04-11T12:24:57.199Z,16.20
2019-04-11T12:27:53.815Z,16.70
2019-04-11T12:30:44.150Z,16.43
2019-04-11T12:33:35.329Z,17.13
2019-04-11T12:36:16.747Z,18.63
2019-04-11T12:39:17.021Z,18.17
2019-04-11T12:42:04.692Z,17.93
2019-04-11T12:44:43.776Z,18.07
2019-04-11T12:47:38.330Z,17.30
2019-04-11T12:50:31.271Z,18.10
2019-04-11T12:53:13.703Z,16.23
2019-04-11T12:56:17.301Z,17.17
2019-04-11T12:59:09.558Z,15.63
2019-04-11T13:01:58.327Z,15.53
2019-04-11T13:04:31.999Z,16.90
2019-04-11T13:07:24.358Z,16.37
2019-04-11T13:10:14.267Z,16.27
2019-04-11T13:13:04.018Z,16.10
2019-04-11T13:15:41.091Z,15.03
2019-04-11T13:18:20.446Z,14.97
2019-04-11T13:20:56.473Z,14.93
2019-04-11T13:23:40.568Z,14.97
2019-04-11T13:26:39.367Z,15.73
2019-04-11T13:29:38.334Z,15.60
2019-04-11T13:32:34.511Z,15.70
2019-04-11T13:35:23.668Z,15.30
2019-04-11T13:38:07.349Z,15.20
2019-04-11T13:41:03.560Z,15.80
2019-04-11T13:43:51.419Z,16.23
2019-04-11T13:46:47.158Z,15.00
2019-04-11T13:49:35.761Z,15.53
2019-04-11T13:52:29.728Z,15.17
2019-04-11T13:55:18.988Z,15.27
2019-04-11T13:58:12.697Z,15.97
2019-04-11T14:00:57.057Z,16.40
2019-04-11T14:03:46.754Z,15.40
2019-04-11T14:06:40.575Z,16.10
2019-04-11T14:09:33.605Z,16.03
2019-04-11T14:12:09.836Z,15.30
2019-04-11T14:14:59.053Z,16.73
2019-04-11T14:17:51.876Z,16.53
2019-04-11T14:20:29.660Z,15.50
2019-04-11T14:23:16.656Z,15.77
2019-04-11T14:26:08.125Z,14.10
2019-04-11T14:29:05.717Z,14.67
2019-04-11T14:32:10.213Z,15.07
2019-04-11T14:35:02.549Z,15.57
2019-04-11T14:37:56.134Z,15.50
2019-04-11T14:40:42.728Z,15.30
2019-04-11T14:43:27.759Z,14.13
2019-04-11T14:46:22.329Z,14.60
2019-04-11T14:49:10.207Z,14.00
2019-04-11T14:51:58.577Z,14.53
2019-04-11T14:54:49.224Z,15.50
2019-04-11T14:57:48.196Z,15.80
2019-04-11T15:00:34.065Z,15.23
2019-04-11T15:03:22.873Z,13.73
2019-04-11T15:06:22.865Z,15.43
2019-04-11T15:09:11.259Z,13.90
2019-04-11T15:12:08.575Z,13.00
2019-04-11T15:15:02.032Z,13.73
2019-04-11T15:17:37.551Z,12.97
2019-04-11T15:20:24.479Z,13.53
2019-04-11T15:23:07.674Z,13.50
2019-04-11T15:26:09.016Z,13.60
2019-04-11T15:28:58.214Z,13.47
2019-04-11T15:31:47.747Z,13.27
2019-04-11T15:34:37.597Z,15.10
2019-04-11T15:37:36.010Z,13.83
2019-04-11T15:40:37.724Z,14.57
2019-04-11T15:43:42.212Z,14.93
2019-04-11T15:46:18.975Z,14.10
2019-04-11T15:49:19.963Z,15.07
2019-04-11T15:52:01.863Z,13.33
2019-04-11T15:54:55.186Z,14.20
2019-04-11T15:57:34.667Z,14.53
2019-04-11T16:00:29.360Z,14.87
2019-04-11T16:03:13.520Z,13.30
2019-04-11T16:06:02.835Z,15.00
2019-04-11T16:09:03.134Z,13.63
2019-04-11T16:11:53.924Z,14.00
2019-04-11T16:14:43.689Z,14.90
2019-04-11T16:17:36.485Z,14.77
2019-04-11T16:20:20.215Z,15.30
2019-04-11T16:23:10.296Z,14.30
2019-04-11T16:25:47.131Z,14.53
2019-04-11T16:28:43.795Z,15.63
2019-04-11T16:31:15.024Z,14.83
2019-04-11T16:34:17.952Z,14.40
2019-04-11T16:36:54.067Z,14.67
2019-04-11T16:39:54.848Z,15.03
2019-04-11T16:42:42.474Z,15.20
2019-04-11T16:45:40.630Z,15.63
2019-04-11T16:48:11.704Z,15.40
2019-04-11T16:50:43.501Z,17.10
2019-04-11T16:53:15.097Z,15.57
2019-04-11T16:55:47.804Z,15.00
2019-04-11T16:58:19.601Z,15.80
2019-04-11T17:00:52.583Z,16.07
2019-04-11T17:03:25.680Z,15.67
2019-04-11T17:06:44.226Z,16.60
2019-04-11T17:09:31.998Z,18.37
2019-04-11T17:12:04.845Z,16.47
2019-04-11T17:14:35.224Z,17.37
2019-04-11T17:17:14.981Z,18.63
2019-04-11T17:19:38.822Z,18.13
2019-04-11T17:22:10.199Z,18.87
2019-04-11T17:24:41.030Z,19.43
2019-04-11T17:27:12.892Z,19.97
2019-04-11T17:29:44.837Z,20.90
2019-04-11T17:32:16.833Z,21.03
2019-04-11T17:34:47.779Z,20.50
2019-04-11T17:37:19.770Z,21.07
2019-04-11T17:39:51.813Z,21.40
2019-04-11T17:42:23.405Z,22.67
2019-04-11T17:44:55.370Z,22.30
2019-04-11T17:47:27.066Z,22.33
2019-04-11T17:49:59.566Z,22.70
2019-04-11T17:52:30.173Z,23.00
2019-04-11T17:55:01.830Z,21.83
2019-04-11T17:57:32.925Z,22.32
2019-04-11T18:00:05.346Z,22.13
2019-04-11T18:02:39.027Z,20.83
2019-04-11T18:05:08.715Z,23.27
2019-04-11T18:07:41.494Z,22.73
2019-04-11T18:10:12.442Z,21.50
2019-04-11T18:12:43.890Z,23.17
2019-04-11T18:15:15.533Z,21.70
2019-04-11T18:17:47.190Z,21.23
2019-04-11T18:20:20.028Z,21.20
2019-04-11T18:22:50.954Z,21.90
2019-04-11T18:25:22.042Z,21.00
2019-04-11T18:27:53.647Z,20.27
2019-04-11T18:30:24.726Z,20.80
2019-04-11T18:32:56.537Z,20.43
2019-04-11T18:35:31.763Z,20.17
2019-04-11T18:38:02.682Z,20.53
2019-04-11T18:40:34.460Z,20.23
2019-04-11T18:43:06.352Z,20.40
2019-04-11T18:45:38.073Z,19.27
2019-04-11T18:48:09.564Z,20.10
2019-04-11T18:50:41.122Z,19.90
2019-04-11T18:53:12.779Z,19.87
2019-04-11T18:55:44.814Z,19.93
2019-04-11T18:58:15.798Z,20.03
2019-04-11T19:00:47.652Z,20.50
2019-04-11T19:03:19.559Z,19.27
2019-04-11T19:05:51.454Z,19.50
2019-04-11T19:08:22.526Z,19.70
2019-04-11T19:10:54.294Z,20.60
2019-04-11T19:13:26.008Z,19.00
2019-04-11T19:15:57.993Z,18.43
2019-04-11T19:18:29.070Z,17.97
2019-04-11T19:21:01.000Z,18.70
2019-04-11T19:23:32.799Z,19.20
2019-04-11T19:26:04.640Z,19.00
2019-04-11T19:28:36.300Z,18.47
2019-04-11T19:31:07.520Z,19.13
2019-04-11T19:33:39.975Z,18.67
2019-04-11T19:36:12.297Z,19.73
2019-04-11T19:38:43.967Z,20.43
2019-04-11T19:41:17.463Z,19.40
2019-04-11T19:43:49.816Z,18.87
2019-04-11T19:46:21.002Z,19.40
2019-04-11T19:48:55.364Z,19.97
2019-04-11T19:51:28.785Z,18.90
2019-04-11T19:54:03.021Z,19.40
2019-04-11T19:56:41.348Z,18.40
2019-04-11T19:59:14.314Z,19.57
2019-04-11T20:01:45.427Z,18.00
2019-04-11T20:04:34.160Z,17.90
2019-04-11T20:07:22.689Z,18.67
2019-04-11T20:10:11.444Z,19.97
2019-04-11T20:13:01.988Z,17.30
2019-04-11T20:15:50.608Z,18.80
2019-04-11T20:18:50.420Z,18.63
2019-04-11T20:21:28.892Z,18.70
2019-04-11T20:24:17.424Z,18.50
2019-04-11T20:27:05.734Z,17.80
2019-04-11T20:29:55.358Z,17.50
2019-04-11T20:32:44.146Z,17.50
2019-04-11T20:35:32.638Z,19.10
2019-04-11T20:38:20.847Z,18.27
2019-04-11T20:41:09.270Z,18.23
2019-04-11T20:43:57.893Z,17.27
2019-04-11T20:46:46.038Z,18.57
2019-04-11T20:49:45.625Z,18.47
2019-04-11T20:52:33.915Z,18.80
2019-04-11T20:55:22.679Z,19.30
2019-04-11T20:58:11.103Z,17.97
2019-04-11T21:01:00.611Z,18.37
2019-04-11T21:03:48.999Z,23.73
2019-04-11T21:06:37.594Z,19.47
2019-04-11T21:09:25.854Z,19.27
2019-04-11T21:12:16.475Z,19.00
2019-04-11T21:15:05.324Z,17.87
2019-04-11T21:17:56.124Z,20.03
2019-04-11T21:20:44.062Z,18.40
2019-04-11T21:23:32.981Z,18.30
2019-04-11T21:26:21.217Z,18.43
2019-04-11T21:29:10.177Z,18.33
2019-04-11T21:32:00.919Z,16.63
2019-04-11T21:34:55.830Z,18.10
2019-04-11T21:37:44.374Z,18.30
2019-04-11T21:40:35.620Z,18.57
2019-04-11T21:43:23.153Z,17.77
2019-04-11T21:46:11.458Z,18.07
2019-04-11T21:48:59.788Z,18.00
2019-04-11T21:51:48.061Z,17.57
2019-04-11T21:55:02.788Z,19.80
2019-04-11T21:57:51.437Z,18.10
2019-04-11T22:00:43.622Z,16.47
2019-04-11T22:03:32.956Z,17.23
2019-04-11T22:06:21.224Z,17.67
2019-04-11T22:09:10.298Z,17.53
2019-04-11T22:11:59.948Z,17.00
2019-04-11T22:14:48.606Z,18.33
2019-04-11T22:17:37.066Z,17.73
2019-04-11T22:20:25.742Z,16.73
2019-04-11T22:23:14.165Z,17.20
2019-04-11T22:26:02.723Z,17.63
2019-04-11T22:28:54.918Z,16.97
2019-04-11T22:31:41.173Z,15.97
2019-04-11T22:34:43.946Z,17.97
2019-04-11T22:37:32.571Z,16.93
2019-04-11T22:40:20.817Z,17.27
2019-04-11T22:43:21.747Z,16.47
2019-04-11T22:45:59.598Z,17.30
2019-04-11T22:48:47.835Z,17.60
2019-04-11T22:51:36.205Z,16.50
2019-04-11T22:54:24.772Z,16.43
2019-04-11T22:57:13.453Z,16.10
2019-04-11T23:00:01.752Z,14.97
2019-04-11T23:03:08.920Z,15.73
2019-04-11T23:05:57.788Z,15.47
2019-04-11T23:08:48.532Z,15.60
2019-04-11T23:11:36.411Z,15.20
2019-04-11T23:14:24.613Z,15.13
2019-04-11T23:17:14.197Z,15.60
2019-04-11T23:20:03.646Z,16.83
2019-04-11T23:22:52.214Z,16.10
2019-04-11T23:25:40.377Z,14.27
2019-04-11T23:28:28.609Z,15.70
2019-04-11T23:31:19.922Z,16.10
2019-04-11T23:34:07.212Z,16.10
2019-04-11T23:36:56.062Z,15.43
2019-04-11T23:39:44.491Z,15.83
2019-04-11T23:42:33.140Z,14.53
2019-04-11T23:45:24.426Z,13.90
2019-04-11T23:48:12.665Z,14.73
2019-04-11T23:51:00.987Z,15.87
2019-04-11T23:53:49.680Z,15.33
2019-04-11T23:56:38.027Z,16.00
2019-04-11T23:59:31.726Z,15.03
